Frontier, North Dakota
Current Conditions -  °F | °C
As of 7:53 AM on Saturday 22 Nov 2014 (Local Time) from KFAR Reporting Station
Clear Clear  
Wind Chill: 17°   Ceiling: Unl
Heat Index: 23°   Visibility: 10mi
Dew Point: 20°   Wind: 5mph
Humidity: 88%   Direction: 160°SSE
Pressure: 29.64"   Gusts: NA
Location:  46.8079°N, 96.8643°W
Report Text: KFAR 221353Z 16004KT 10SM CLR M05/M07 A2964 RMK AO2 SLP050 T10501067
Loading
Personal Weather Stations






























Interactive Weather Map New forecast layout! Learn more

10-Day Weather Forecast

Advertisements
Track Severe Weather on mobile